Time;durP1;ratioP1;P1;durP2;ratioP2;P2;SDS_P1;SDS_P2;PMS_P1;PMS_P2;Temp;Humidity;BMP_temperature;BMP_pressure;BME280_temperature;BME280_humidity;BME280_pressure;Samples;Min_cycle;Max_cycle;Signal;HPM_P1;HPM_P2
2022/01/25 00:10:43;;;;;;;66.40;44.08;;;;;;;4.15;69.47;103371.13;5094202;28;20171;-66
2022/01/25 00:24:18;;;;;;;67.18;44.63;;;;;;;4.18;69.28;103387.34;5095288;28;20124;-67
2022/01/25 00:27:11;;;;;;;66.43;43.33;;;;;;;4.20;69.62;103384.41;5092110;28;20044;-66
2022/01/25 00:32:12;;;;;;;69.15;45.20;;;;;;;4.21;69.58;103374.31;5093172;28;20119;-67
2022/01/25 00:34:38;;;;;;;69.80;45.10;;;;;;;4.18;69.77;103379.09;5094757;28;20031;-67
2022/01/25 00:37:04;;;;;;;69.45;44.60;;;;;;;4.17;69.69;103385.59;5111372;28;20088;-66
2022/01/25 00:39:31;;;;;;;67.43;44.65;;;;;;;4.22;69.84;103382.41;5093847;28;20700;-67
2022/01/25 00:41:56;;;;;;;66.47;43.65;;;;;;;4.24;69.31;103376.75;5105656;28;20107;-66
2022/01/25 00:44:21;;;;;;;68.20;43.95;;;;;;;4.24;69.75;103382.25;5106546;28;20115;-67
2022/01/25 00:46:47;;;;;;;70.20;44.63;;;;;;;4.24;69.26;103383.09;5107256;28;20046;-67
2022/01/25 00:49:25;;;;;;;65.57;43.75;;;;;;;4.25;69.47;103387.63;5091147;28;20119;-66
2022/01/25 00:56:48;;;;;;;63.85;41.90;;;;;;;4.23;70.01;103372.28;5092146;28;20612;-66
2022/01/25 00:59:20;;;;;;;70.22;44.45;;;;;;;4.25;70.01;103373.00;5092044;28;20032;-66
2022/01/25 01:01:47;;;;;;;65.90;42.92;;;;;;;4.21;70.13;103374.31;5093664;28;20031;-67
2022/01/25 01:04:13;;;;;;;67.78;44.78;;;;;;;4.21;69.83;103366.06;5108397;28;20073;-67
2022/01/25 01:06:42;;;;;;;69.45;43.65;;;;;;;4.24;70.19;103372.09;5105972;28;20440;-67
2022/01/25 01:09:08;;;;;;;67.43;43.88;;;;;;;4.22;69.85;103370.56;5093062;28;20736;-67
2022/01/25 01:11:41;;;;;;;66.80;44.15;;;;;;;4.22;70.26;103368.66;5092075;28;20028;-67
2022/01/25 01:14:38;;;;;;;;;;;;;;;4.41;68.95;103364.97;5105125;28;20020;-67
2022/01/25 01:17:21;;;;;;;65.10;42.03;;;;;;;4.30;69.98;103362.41;5098349;28;19931;-66
2022/01/25 01:30:58;;;;;;;70.63;43.25;;;;;;;4.29;70.38;103379.94;5106534;28;20053;-67
2022/01/25 01:36:49;;;;;;;67.53;44.10;;;;;;;4.31;70.45;103388.88;5091450;28;20494;-67
2022/01/25 01:39:41;;;;;;;67.80;43.63;;;;;;;4.30;70.43;103379.78;5107337;28;20044;-67
2022/01/25 01:42:38;;;;;;;66.97;44.03;;;;;;;4.28;70.29;103381.78;5091596;28;20377;-67
2022/01/25 01:47:44;;;;;;;65.78;42.60;;;;;;;4.27;70.23;103382.81;5091589;28;20036;-67
2022/01/25 01:50:14;;;;;;;67.15;43.78;;;;;;;4.29;70.43;103371.69;5091280;28;20032;-67
2022/01/25 01:52:39;;;;;;;66.50;42.22;;;;;;;4.31;70.35;103383.38;5095853;28;20557;-67
2022/01/25 01:55:06;;;;;;;68.65;44.00;;;;;;;4.29;70.33;103377.19;5105439;28;20101;-67
2022/01/25 01:57:32;;;;;;;66.95;43.88;;;;;;;4.32;70.69;103385.13;5111081;28;20028;-66
2022/01/25 01:59:57;;;;;;;67.00;43.53;;;;;;;4.33;70.75;103389.63;5104710;28;20035;-67
2022/01/25 02:02:23;;;;;;;67.65;44.25;;;;;;;4.33;70.33;103384.97;5094434;28;20110;-66
2022/01/25 02:04:48;;;;;;;68.80;43.53;;;;;;;4.29;70.43;103389.03;5098572;28;20051;-67
2022/01/25 02:07:13;;;;;;;66.82;43.80;;;;;;;4.30;70.67;103389.91;5090659;28;20040;-67
2022/01/25 02:09:39;;;;;;;69.82;44.50;;;;;;;4.29;70.83;103378.06;5094874;28;20031;-67
2022/01/25 02:12:05;;;;;;;66.25;44.00;;;;;;;4.30;71.24;103373.41;5103640;28;20475;-66
2022/01/25 02:14:33;;;;;;;68.10;43.35;;;;;;;4.28;70.98;103369.94;5097310;28;20038;-67
2022/01/25 02:17:23;;;;;;;64.95;42.90;;;;;;;4.30;70.80;103370.66;5101596;28;20107;-67
2022/01/25 02:22:50;;;;;;;66.40;43.33;;;;;;;4.31;70.60;103375.13;5091370;28;20062;-66
2022/01/25 02:25:15;;;;;;;66.57;44.08;;;;;;;4.31;70.44;103364.13;5091053;28;20495;-67
2022/01/25 02:27:41;;;;;;;70.07;45.33;;;;;;;4.30;70.98;103363.28;5102215;28;20039;-67
2022/01/25 02:30:06;;;;;;;68.93;43.78;;;;;;;4.33;70.56;103364.88;5094579;28;20040;-67
2022/01/25 02:32:31;;;;;;;68.45;43.85;;;;;;;4.33;71.05;103362.13;5097891;28;20031;-66
2022/01/25 02:34:57;;;;;;;67.90;44.08;;;;;;;4.32;70.42;103357.63;5090358;28;20097;-65
2022/01/25 02:37:22;;;;;;;71.78;44.80;;;;;;;4.31;70.85;103355.88;5104702;28;20024;-65
2022/01/25 02:39:48;;;;;;;66.93;43.95;;;;;;;4.31;70.96;103358.63;5108692;28;20024;-64
2022/01/25 02:42:16;;;;;;;69.07;44.20;;;;;;;4.32;71.16;103344.75;5096727;28;20028;-65
2022/01/25 02:44:43;;;;;;;72.82;45.47;;;;;;;4.34;70.49;103345.47;5090648;28;20020;-65
2022/01/25 02:49:52;;;;;;;70.97;45.13;;;;;;;4.33;70.45;103340.13;5103274;28;20445;-65
2022/01/25 02:52:18;;;;;;;71.60;45.47;;;;;;;4.35;71.04;103355.44;5110079;28;20027;-65
2022/01/25 02:54:44;;;;;;;70.65;45.72;;;;;;;4.37;70.69;103349.81;5098781;28;20028;-64
2022/01/25 02:57:09;;;;;;;73.38;45.53;;;;;;;4.32;71.17;103338.38;5090693;28;20069;-64
2022/01/25 02:59:35;;;;;;;73.15;45.50;;;;;;;4.35;71.14;103340.81;5097902;28;20036;-65
2022/01/25 03:02:01;;;;;;;70.93;45.40;;;;;;;4.35;71.01;103349.06;5100718;28;20077;-65
2022/01/25 03:04:27;;;;;;;69.97;45.15;;;;;;;4.36;71.40;103348.03;5096374;28;20028;-65
2022/01/25 03:06:52;;;;;;;73.53;46.97;;;;;;;4.34;71.28;103345.47;5099765;28;20043;-65
2022/01/25 03:09:17;;;;;;;74.68;46.70;;;;;;;4.38;71.08;103346.03;5092047;28;20112;-64
2022/01/25 03:11:49;;;;;;;73.50;45.85;;;;;;;4.41;70.72;103348.47;5090794;28;20371;-65
2022/01/25 03:14:17;;;;;;;75.13;47.50;;;;;;;4.39;70.95;103339.50;5101781;28;20027;-65
2022/01/25 03:17:05;;;;;;;74.80;47.15;;;;;;;4.40;70.83;103335.72;5105072;28;20039;-65
2022/01/25 03:23:18;;;;;;;75.80;46.53;;;;;;;4.37;71.12;103325.06;5099230;28;20027;-65
2022/01/25 03:25:03;;;;;;;78.50;48.05;;;;;;;4.41;70.68;103329.22;5097671;28;20038;-65
2022/01/25 03:27:28;;;;;;;74.32;46.28;;;;;;;4.43;70.46;103318.94;5101441;28;20127;-64
2022/01/25 03:29:53;;;;;;;73.55;46.92;;;;;;;4.45;70.46;103335.31;5107781;28;20491;-65
2022/01/25 03:32:18;;;;;;;73.72;45.95;;;;;;;4.45;70.34;103332.56;5098048;28;20036;-66
2022/01/25 03:34:44;;;;;;;74.72;46.65;;;;;;;4.46;70.08;103326.88;5099154;28;20429;-66
2022/01/25 03:37:09;;;;;;;73.85;45.55;;;;;;;4.44;70.59;103317.91;5099600;28;20032;-66
2022/01/25 03:39:34;;;;;;;76.80;47.05;;;;;;;4.45;70.41;103316.91;5101251;28;20122;-66
2022/01/25 03:42:00;;;;;;;77.07;47.15;;;;;;;4.42;70.69;103325.47;5093631;28;20035;-66
2022/01/25 03:44:25;;;;;;;76.07;46.80;;;;;;;4.43;70.72;103318.94;5093170;28;20082;-65
2022/01/25 03:52:00;;;;;;;72.18;46.03;;;;;;;4.46;70.96;103318.63;5093184;28;20043;-66
2022/01/25 03:54:26;;;;;;;77.10;47.45;;;;;;;4.46;70.86;103324.13;5097317;28;20020;-65
2022/01/25 03:56:51;;;;;;;78.90;48.28;;;;;;;4.48;70.65;103333.13;5096156;28;20056;-66
2022/01/25 03:59:16;;;;;;;78.47;49.00;;;;;;;4.45;70.76;103327.06;5112433;28;20107;-65
2022/01/25 04:01:42;;;;;;;79.90;48.95;;;;;;;4.47;70.84;103333.25;5099889;28;20498;-66
2022/01/25 04:04:14;;;;;;;82.97;48.80;;;;;;;4.45;70.79;103333.41;5093204;28;20089;-65
2022/01/25 04:06:43;;;;;;;78.50;48.88;;;;;;;4.45;70.53;103338.91;5109102;28;20027;-65
2022/01/25 04:09:09;;;;;;;77.47;49.53;;;;;;;4.48;70.55;103330.38;5098593;28;20147;-66
2022/01/25 04:11:35;;;;;;;79.70;48.33;;;;;;;4.48;70.93;103338.63;5095667;28;20853;-65
2022/01/25 04:14:01;;;;;;;77.55;48.90;;;;;;;4.51;70.86;103337.44;5097179;28;20768;-65
2022/01/25 04:16:35;;;;;;;75.68;47.38;;;;;;;4.48;70.75;103335.88;5110345;28;20027;-66
2022/01/25 04:19:29;;;;;;;78.05;46.90;;;;;;;4.48;71.23;103335.88;5110052;28;20027;-65
2022/01/25 04:24:55;;;;;;;78.75;48.38;;;;;;;4.49;71.19;103332.09;5092617;28;20063;-66
2022/01/25 04:27:22;;;;;;;77.85;45.92;;;;;;;4.49;71.43;103326.59;5092462;28;20040;-66
2022/01/25 04:29:48;;;;;;;77.85;48.53;;;;;;;4.50;71.02;103320.06;5092816;28;20032;-66
2022/01/25 04:32:14;;;;;;;78.90;47.00;;;;;;;4.49;71.07;103323.84;5102881;28;20478;-66
2022/01/25 04:34:44;;;;;;;79.18;46.35;;;;;;;4.53;71.08;103329.91;5107431;28;20032;-66
2022/01/25 04:51:14;;;;;;;78.28;46.05;;;;;;;4.54;71.19;103323.38;5053612;28;20485;-66
2022/01/25 04:53:57;;;;;;;75.65;47.20;;;;;;;4.53;70.94;103313.41;5109904;28;20027;-66
2022/01/25 04:56:30;;;;;;;;;;;;;;;4.71;70.26;103316.19;5088007;28;20042;-65
2022/01/25 04:59:05;;;;;;;77.63;45.38;;;;;;;4.54;70.90;103315.97;5105526;28;19920;-66
2022/01/25 05:01:30;;;;;;;83.18;47.75;;;;;;;4.51;70.95;103310.78;5107500;28;20061;-66
2022/01/25 05:04:06;;;;;;;80.28;48.38;;;;;;;4.53;71.55;103311.50;5110459;28;20100;-65
2022/01/25 05:06:32;;;;;;;77.45;46.65;;;;;;;4.51;71.04;103315.41;5095167;28;20024;-66
2022/01/25 05:09:08;;;;;;;76.70;45.15;;;;;;;4.50;71.21;103314.56;5090873;28;20069;-66
2022/01/25 05:11:35;;;;;;;74.93;45.33;;;;;;;4.51;71.73;103316.28;5092954;28;20032;-66
2022/01/25 05:19:09;;;;;;;77.75;48.00;;;;;;;4.49;71.59;103318.34;5098770;28;20380;-66
2022/01/25 05:24:20;;;;;;;80.72;48.33;;;;;;;4.55;71.02;103314.09;5092741;28;20055;-66
2022/01/25 05:26:45;;;;;;;82.40;49.33;;;;;;;4.50;71.37;103309.06;5109593;28;20031;-66
2022/01/25 05:29:10;;;;;;;77.20;48.53;;;;;;;4.51;71.42;103310.78;5098288;28;20348;-66
2022/01/25 05:31:37;;;;;;;80.63;48.53;;;;;;;4.52;71.28;103307.03;5106742;28;20055;-66
2022/01/25 05:34:03;;;;;;;84.03;50.35;;;;;;;4.52;71.41;103308.91;5100467;28;20023;-66
2022/01/25 05:36:29;;;;;;;81.80;49.40;;;;;;;4.51;70.99;103305.28;5089791;28;20035;-66
2022/01/25 05:38:58;;;;;;;83.13;48.95;;;;;;;4.51;71.07;103308.03;5103562;28;20387;-66
2022/01/25 05:41:28;;;;;;;82.03;49.20;;;;;;;4.52;71.23;103303.38;5097824;28;20050;-67
2022/01/25 05:46:35;;;;;;;86.18;49.95;;;;;;;4.51;70.79;103301.66;5091157;28;20483;-66
2022/01/25 05:49:00;;;;;;;83.32;49.42;;;;;;;4.53;70.73;103296.91;5093866;28;20032;-66
2022/01/25 05:51:25;;;;;;;80.95;49.60;;;;;;;4.53;70.96;103306.00;5090417;28;20501;-66
2022/01/25 05:53:51;;;;;;;81.45;49.38;;;;;;;4.57;71.03;103309.31;5111371;28;20034;-65
2022/01/25 05:56:16;;;;;;;84.72;52.15;;;;;;;4.56;70.88;103307.56;5094171;28;20058;-66
2022/01/25 05:58:42;;;;;;;82.15;49.13;;;;;;;4.57;71.06;103301.94;5091886;28;20036;-66
2022/01/25 06:01:08;;;;;;;85.55;50.95;;;;;;;4.56;71.15;103300.22;5102632;28;20070;-66
2022/01/25 06:03:33;;;;;;;87.28;51.60;;;;;;;4.57;70.88;103299.19;5107806;28;20027;-66
2022/01/25 06:05:59;;;;;;;81.90;49.33;;;;;;;4.58;70.85;103302.78;5091921;28;20089;-66
2022/01/25 06:08:24;;;;;;;84.47;50.55;;;;;;;4.57;71.30;103298.31;5099425;28;20032;-66
2022/01/25 06:10:49;;;;;;;81.63;50.72;;;;;;;4.55;71.07;103306.69;5100246;28;20074;-66
2022/01/25 06:13:15;;;;;;;87.93;53.33;;;;;;;4.55;70.98;103295.69;5094153;28;20400;-66
2022/01/25 06:15:40;;;;;;;86.32;51.60;;;;;;;4.58;70.79;103300.91;5104715;28;20024;-66
2022/01/25 06:18:05;;;;;;;87.82;52.45;;;;;;;4.58;70.72;103303.66;5101182;28;20023;-65
2022/01/25 06:20:32;;;;;;;90.38;52.08;;;;;;;4.59;70.96;103299.88;5092848;28;20052;-64
2022/01/25 06:22:57;;;;;;;86.38;50.95;;;;;;;4.59;70.54;103299.88;5095980;28;20066;-64
2022/01/25 06:25:23;;;;;;;88.05;51.38;;;;;;;4.62;70.91;103302.31;5091746;28;20021;-65
2022/01/25 06:27:48;;;;;;;83.03;50.22;;;;;;;4.61;70.62;103303.34;5104749;28;20506;-65
2022/01/25 06:30:17;;;;;;;92.53;52.78;;;;;;;4.59;70.33;103297.13;5104910;28;20055;-64
2022/01/25 06:32:44;;;;;;;90.50;52.33;;;;;;;4.62;70.47;103302.31;5098108;28;20031;-65
2022/01/25 06:35:10;;;;;;;91.30;52.95;;;;;;;4.59;70.36;103296.25;5102897;28;20036;-64
2022/01/25 06:37:36;;;;;;;87.90;53.08;;;;;;;4.59;70.54;103301.75;5098517;28;20023;-64
2022/01/25 06:40:01;;;;;;;88.20;53.45;;;;;;;4.61;70.74;103297.00;5104237;28;20433;-64
2022/01/25 06:42:30;;;;;;;90.57;52.83;;;;;;;4.60;71.02;103306.28;5106606;28;20114;-64
2022/01/25 06:44:59;;;;;;;90.68;53.55;;;;;;;4.60;70.33;103304.38;5100132;28;20031;-65
2022/01/25 06:47:24;;;;;;;88.68;53.65;;;;;;;4.58;70.85;103306.41;5103472;28;20058;-65
2022/01/25 06:49:49;;;;;;;91.28;52.40;;;;;;;4.57;70.98;103301.94;5113315;28;20059;-66
2022/01/25 06:52:15;;;;;;;101.18;57.92;;;;;;;4.58;70.62;103306.41;5108358;28;20024;-67
2022/01/25 06:54:40;;;;;;;97.97;57.00;;;;;;;4.60;70.38;103298.88;5103838;28;20036;-64
2022/01/25 06:57:06;;;;;;;93.03;55.25;;;;;;;4.60;71.06;103298.03;5108554;28;20036;-63
2022/01/25 06:59:31;;;;;;;97.28;54.28;;;;;;;4.60;70.71;103304.38;5110576;28;20028;-64
2022/01/25 07:01:56;;;;;;;97.32;57.03;;;;;;;4.61;70.73;103317.09;5100273;28;20078;-64
2022/01/25 07:04:22;;;;;;;87.53;52.90;;;;;;;4.68;70.02;103309.13;5103782;28;20027;-64
2022/01/25 07:06:47;;;;;;;88.32;52.35;;;;;;;4.71;69.85;103318.94;5114004;27;20482;-63
2022/01/25 07:09:12;;;;;;;93.53;55.03;;;;;;;4.70;70.48;103319.97;5113756;27;20036;-64
2022/01/25 07:11:38;;;;;;;89.03;52.63;;;;;;;4.67;70.16;103321.97;5100419;27;20036;-63
2022/01/25 07:14:03;;;;;;;91.18;51.80;;;;;;;4.66;69.72;103325.75;5113370;27;20101;-63
2022/01/25 07:16:28;;;;;;;84.10;51.13;;;;;;;4.69;69.71;103332.84;5108245;28;20115;-63
2022/01/25 07:18:53;;;;;;;87.78;51.83;;;;;;;4.70;68.98;103330.97;5114658;27;20026;-63
2022/01/25 07:21:19;;;;;;;87.07;53.28;;;;;;;4.68;69.72;103318.22;5112180;27;20051;-63
2022/01/25 07:23:44;;;;;;;88.80;53.47;;;;;;;4.67;69.76;103319.22;5099242;27;20046;-65
2022/01/25 07:26:10;;;;;;;88.22;52.50;;;;;;;4.67;69.72;103323.88;5106623;27;20539;-65
2022/01/25 07:28:36;;;;;;;90.68;53.10;;;;;;;4.72;69.27;103324.28;5100064;28;20043;-66
2022/01/25 07:31:02;;;;;;;92.57;54.60;;;;;;;4.74;69.20;103318.63;5103654;28;20356;-64
2022/01/25 07:33:28;;;;;;;91.75;52.17;;;;;;;4.75;68.84;103328.59;5102771;27;20099;-64
2022/01/25 07:35:53;;;;;;;90.20;53.65;;;;;;;4.78;68.54;103329.16;5110608;27;20115;-63
2022/01/25 07:38:18;;;;;;;91.28;54.80;;;;;;;4.81;68.15;103328.00;5111590;27;20513;-64
2022/01/25 07:40:44;;;;;;;93.88;55.30;;;;;;;4.78;67.86;103318.16;5105664;27;20035;-63
2022/01/25 07:43:10;;;;;;;87.57;53.00;;;;;;;4.81;67.70;103317.00;5108683;27;20035;-63
2022/01/25 07:45:36;;;;;;;92.38;53.78;;;;;;;4.81;67.86;103322.50;5104258;27;20020;-64
2022/01/25 07:48:04;;;;;;;98.68;57.15;;;;;;;4.80;68.26;103326.28;5116596;27;20028;-65
2022/01/25 07:50:29;;;;;;;89.57;53.58;;;;;;;4.84;68.37;103331.31;5111663;27;20035;-66
2022/01/25 07:52:54;;;;;;;87.30;54.13;;;;;;;4.86;68.06;103325.63;5118337;27;20035;-64
2022/01/25 07:55:20;;;;;;;92.90;54.80;;;;;;;4.84;67.99;103336.81;5101369;27;20044;-66
2022/01/25 07:57:45;;;;;;;91.72;56.70;;;;;;;4.84;68.26;103324.94;5119113;27;20027;-64
2022/01/25 08:00:11;;;;;;;90.57;54.72;;;;;;;4.86;67.50;103334.75;5104334;28;20042;-62
2022/01/25 08:02:37;;;;;;;93.43;55.83;;;;;;;4.82;67.16;103330.59;5110705;27;20023;-62
2022/01/25 08:05:03;;;;;;;93.40;56.38;;;;;;;4.80;67.08;103329.03;5109858;27;20053;-62
2022/01/25 08:07:28;;;;;;;93.03;56.33;;;;;;;4.86;67.13;103329.25;5111371;27;20097;-62
2022/01/25 08:09:53;;;;;;;93.55;55.45;;;;;;;4.89;67.53;103328.94;5116227;27;20024;-61
2022/01/25 08:12:18;;;;;;;90.05;53.17;;;;;;;4.90;67.86;103327.91;5102685;27;20035;-61
2022/01/25 08:14:44;;;;;;;91.35;54.58;;;;;;;4.91;67.95;103331.53;5101448;28;20032;-67
2022/01/25 08:17:10;;;;;;;91.53;55.35;;;;;;;4.89;68.42;103337.22;5113162;27;20027;-64
2022/01/25 08:19:35;;;;;;;91.65;55.42;;;;;;;4.88;67.98;103323.63;5099381;27;20735;-60
2022/01/25 08:22:00;;;;;;;94.90;57.33;;;;;;;4.87;68.23;103330.13;5109476;27;20125;-64
2022/01/25 08:24:26;;;;;;;95.53;56.10;;;;;;;4.86;68.11;103331.16;5099793;27;20069;-62
2022/01/25 08:26:51;;;;;;;94.50;55.50;;;;;;;4.91;67.72;103339.78;5109942;27;20034;-62
2022/01/25 08:29:17;;;;;;;100.13;55.83;;;;;;;4.92;67.06;103342.41;5125160;27;20027;-63
2022/01/25 08:31:42;;;;;;;98.95;57.67;;;;;;;4.92;67.48;103341.53;5109672;27;20028;-63
2022/01/25 08:34:11;;;;;;;93.35;56.10;;;;;;;4.93;67.52;103346.03;5117920;27;20030;-64
2022/01/25 08:36:37;;;;;;;94.43;56.63;;;;;;;4.93;67.74;103348.78;5099385;27;20383;-64
2022/01/25 08:39:04;;;;;;;92.80;56.20;;;;;;;4.93;67.49;103344.13;5098972;27;20076;-64
2022/01/25 08:41:29;;;;;;;108.57;61.90;;;;;;;4.92;66.73;103342.41;5103361;27;20179;-63
2022/01/25 08:43:54;;;;;;;111.53;64.53;;;;;;;4.93;66.44;103338.63;5109465;27;20142;-63
2022/01/25 08:46:20;;;;;;;114.38;64.38;;;;;;;4.91;66.57;103340.69;5112728;27;20019;-65
2022/01/25 08:48:45;;;;;;;108.88;63.78;;;;;;;4.94;65.95;103342.25;5105389;28;20485;-64
2022/01/25 08:51:12;;;;;;;114.70;65.68;;;;;;;4.92;66.32;103341.53;5104610;27;20549;-64
2022/01/25 08:53:37;;;;;;;114.97;65.80;;;;;;;4.95;66.42;103341.22;5105332;27;20116;-65
2022/01/25 08:56:03;;;;;;;120.90;68.30;;;;;;;4.98;66.00;103348.31;5097178;27;20127;-65
2022/01/25 08:58:29;;;;;;;120.57;69.10;;;;;;;4.94;65.53;103339.50;5104213;27;20368;-62
2022/01/25 09:00:55;;;;;;;125.07;70.45;;;;;;;4.93;66.20;103343.28;5105068;27;20028;-66
2022/01/25 09:03:20;;;;;;;125.00;70.82;;;;;;;4.91;65.86;103343.44;5115833;27;20032;-61
2022/01/25 09:05:45;;;;;;;124.95;71.07;;;;;;;4.95;65.83;103357.72;5114509;27;20034;-66
2022/01/25 09:08:16;;;;;;;121.50;70.70;;;;;;;4.94;66.18;103353.25;5102343;27;20036;-66
2022/01/25 09:10:42;;;;;;;122.82;68.93;;;;;;;4.99;66.14;103352.78;5114794;27;20817;-67
2022/01/25 09:13:07;;;;;;;118.72;68.47;;;;;;;5.00;65.97;103352.66;5104760;27;20043;-61
2022/01/25 09:15:32;;;;;;;120.85;67.90;;;;;;;5.01;66.08;103357.13;5105822;27;20037;-65
2022/01/25 09:17:57;;;;;;;119.82;68.45;;;;;;;5.05;65.78;103352.19;5113557;27;20035;-63
2022/01/25 09:20:23;;;;;;;119.82;68.05;;;;;;;5.02;66.41;103353.34;5111450;27;20168;-65
2022/01/25 09:22:48;;;;;;;119.88;69.75;;;;;;;5.04;66.17;103354.06;5101977;28;20020;-67
2022/01/25 09:25:13;;;;;;;129.18;72.50;;;;;;;5.04;66.07;103354.06;5101267;28;20043;-67
2022/01/25 09:27:40;;;;;;;126.90;71.22;;;;;;;5.05;66.11;103355.78;5105457;28;20039;-66
2022/01/25 09:30:06;;;;;;;128.57;71.93;;;;;;;5.08;65.65;103363.75;5103727;28;20031;-65
2022/01/25 09:32:31;;;;;;;133.25;74.57;;;;;;;5.03;65.15;103352.34;5107967;28;20035;-61
2022/01/25 09:34:56;;;;;;;132.80;75.90;;;;;;;5.03;65.64;103357.84;5101233;28;20027;-66
2022/01/25 09:37:21;;;;;;;134.75;74.88;;;;;;;5.08;65.61;103363.75;5101244;28;20027;-63
2022/01/25 09:39:47;;;;;;;129.98;73.05;;;;;;;5.09;65.30;103357.22;5098943;28;20035;-64
2022/01/25 09:42:12;;;;;;;134.02;74.07;;;;;;;5.14;65.03;103359.50;5099937;28;20047;-64
2022/01/25 09:44:39;;;;;;;131.85;73.55;;;;;;;5.14;65.60;103362.25;5100885;28;20024;-64
2022/01/25 09:47:06;;;;;;;137.25;75.03;;;;;;;5.15;65.01;103364.84;5101773;28;20032;-64
2022/01/25 09:49:33;;;;;;;133.27;74.32;;;;;;;5.11;65.67;103363.44;5094781;28;20072;-65
2022/01/25 09:52:03;;;;;;;135.23;75.72;;;;;;;5.12;65.53;103367.06;5100901;28;20032;-65
2022/01/25 09:54:31;;;;;;;128.73;72.28;;;;;;;5.14;65.30;103371.34;5098859;28;20913;-67
2022/01/25 09:56:56;;;;;;;126.32;72.47;;;;;;;5.15;64.73;103375.00;5101352;28;20059;-65
2022/01/25 09:59:22;;;;;;;128.25;73.10;;;;;;;5.18;64.62;103375.53;5105528;28;20181;-64
2022/01/25 10:01:47;;;;;;;129.15;72.53;;;;;;;5.21;64.10;103373.50;5099247;28;20028;-60
2022/01/25 10:04:37;;;;;;;120.43;68.85;;;;;;;5.25;64.74;103372.16;5103279;28;20114;-60
2022/01/25 10:07:04;;;;;;;122.10;69.40;;;;;;;5.21;64.28;103374.38;5106015;28;20039;-63
2022/01/25 10:09:30;;;;;;;119.70;68.88;;;;;;;5.24;64.03;103374.06;5103668;28;20027;-63
2022/01/25 10:11:55;;;;;;;120.95;68.20;;;;;;;5.26;64.26;103376.66;5108233;28;20068;-63
2022/01/25 10:14:23;;;;;;;114.93;68.80;;;;;;;5.26;63.66;103374.75;5103757;28;20028;-65
2022/01/25 10:16:53;;;;;;;116.53;67.63;;;;;;;5.24;63.78;103375.97;5090051;28;20052;-64
2022/01/25 10:19:23;;;;;;;115.55;67.68;;;;;;;5.26;64.23;103376.66;5094280;28;20027;-64
2022/01/25 10:21:51;;;;;;;116.97;67.20;;;;;;;5.29;63.28;103374.44;5105912;28;20067;-64
2022/01/25 10:24:17;;;;;;;120.63;69.80;;;;;;;5.27;63.76;103381.16;5104034;28;20467;-65
2022/01/25 10:26:48;;;;;;;122.25;69.05;;;;;;;5.29;63.73;103381.84;5099951;28;20391;-64
2022/01/25 10:29:16;;;;;;;127.25;71.25;;;;;;;5.30;63.04;103383.56;5100941;28;20495;-65
2022/01/25 10:31:48;;;;;;;122.55;69.57;;;;;;;5.28;63.35;103374.63;5097078;28;20368;-64
2022/01/25 10:34:20;;;;;;;122.18;70.07;;;;;;;5.28;63.41;103374.63;5096786;28;20030;-64
2022/01/25 10:36:48;;;;;;;125.65;69.53;;;;;;;5.26;63.68;103374.75;5099268;28;20088;-64
2022/01/25 10:39:20;;;;;;;121.68;70.95;;;;;;;5.26;63.76;103376.66;5107231;28;20032;-64
2022/01/25 10:41:45;;;;;;;121.22;69.40;;;;;;;5.25;63.67;103385.94;5105465;28;20386;-63
2022/01/25 10:44:11;;;;;;;123.57;71.40;;;;;;;5.27;63.53;103373.75;5100251;28;20023;-65
2022/01/25 10:46:36;;;;;;;121.53;69.93;;;;;;;5.30;63.79;103372.56;5104264;28;20072;-65
2022/01/25 10:49:12;;;;;;;118.97;70.10;;;;;;;5.35;63.61;103375.72;5106132;28;20092;-64
2022/01/25 10:51:46;;;;;;;120.35;70.28;;;;;;;5.33;63.27;103370.34;5107743;28;20491;-64
2022/01/25 10:54:20;;;;;;;123.03;71.20;;;;;;;5.32;63.98;103371.38;5104560;28;20027;-60
2022/01/25 10:56:49;;;;;;;119.25;69.70;;;;;;;5.31;63.89;103375.19;5103691;28;20065;-61
2022/01/25 10:59:18;;;;;;;121.05;71.38;;;;;;;5.30;63.99;103367.06;5099895;28;20042;-65
2022/01/25 11:01:55;;;;;;;125.30;70.82;;;;;;;5.34;63.83;103369.31;5098687;28;20031;-65
2022/01/25 11:04:34;;;;;;;120.32;70.10;;;;;;;5.36;63.39;103367.28;5104054;28;20038;-65
2022/01/25 11:07:08;;;;;;;119.00;69.13;;;;;;;5.35;63.81;103371.09;5104547;28;20024;-65
2022/01/25 11:09:40;;;;;;;122.35;70.65;;;;;;;5.36;63.72;103366.44;5100618;28;20536;-65
2022/01/25 11:12:10;;;;;;;127.82;72.93;;;;;;;5.36;63.43;103369.19;5091267;28;20071;-64
2022/01/25 11:14:53;;;;;;;124.50;70.93;;;;;;;5.34;63.41;103368.47;5103284;28;20043;-66
2022/01/25 11:17:19;;;;;;;;;;;;;;;5.48;64.67;103372.56;5098309;28;20031;-63
2022/01/25 11:19:44;;;;;;;124.43;67.90;;;;;;;5.39;63.57;103379.91;5096294;28;19935;-63
2022/01/25 11:22:12;;;;;;;120.38;69.47;;;;;;;5.37;63.55;103373.66;5096217;28;20032;-63
2022/01/25 11:24:39;;;;;;;123.00;71.45;;;;;;;5.36;64.05;103378.31;5100721;28;20080;-62
2022/01/25 11:27:06;;;;;;;121.35;70.32;;;;;;;5.90;66.46;103379.16;5108163;28;20044;-64
2022/01/25 11:29:37;;;;;;;122.18;70.10;;;;;;;5.98;63.34;103372.88;5101955;28;20119;-63
2022/01/25 11:32:07;;;;;;;118.57;70.82;;;;;;;5.89;62.69;103371.91;5105756;28;20047;-66
2022/01/25 11:34:35;;;;;;;116.75;69.00;;;;;;;5.81;62.94;103376.47;5098745;28;20081;-66
2022/01/25 11:37:05;;;;;;;120.43;68.68;;;;;;;5.73;62.73;103373.66;5101232;28;20072;-65
2022/01/25 11:39:31;;;;;;;122.75;71.65;;;;;;;5.64;63.11;103370.81;5105297;28;20086;-65
2022/01/25 11:42:15;;;;;;;117.70;70.10;;;;;;;5.65;63.02;103378.06;5102136;28;20020;-65
2022/01/25 11:44:52;;;;;;;122.45;69.93;;;;;;;5.62;63.15;103370.13;5103755;28;20035;-65
2022/01/25 11:47:20;;;;;;;119.85;70.45;;;;;;;5.57;62.61;103369.72;5106429;28;20032;-65
2022/01/25 11:49:54;;;;;;;120.13;68.35;;;;;;;5.58;63.04;103374.22;5106452;28;20034;-65
2022/01/25 11:52:21;;;;;;;118.90;70.65;;;;;;;5.55;62.43;103370.94;5091604;28;20059;-65
2022/01/25 11:54:50;;;;;;;117.00;68.63;;;;;;;5.53;62.97;103379.31;5097502;28;20028;-66
2022/01/25 11:57:25;;;;;;;120.40;69.93;;;;;;;5.53;62.87;103368.31;5099232;27;20022;-66
2022/01/25 11:59:56;;;;;;;115.57;68.13;;;;;;;5.52;63.39;103372.09;5107363;27;20039;-66
2022/01/25 12:03:01;;;;;;;121.25;69.25;;;;;;;5.57;63.11;103366.09;5101029;27;20086;-65
2022/01/25 12:05:27;;;;;;;119.85;68.75;;;;;;;5.56;62.88;103362.50;5102938;27;20183;-64
2022/01/25 12:08:11;;;;;;;119.95;69.80;;;;;;;5.63;63.09;103362.72;5107334;27;20478;-64
2022/01/25 12:10:46;;;;;;;118.30;68.28;;;;;;;5.59;63.12;103359.44;5097875;27;20440;-65
2022/01/25 12:13:27;;;;;;;121.90;69.32;;;;;;;5.60;62.91;103354.78;5104087;28;20059;-65
2022/01/25 12:16:26;;;;;;;123.80;68.90;;;;;;;5.62;63.14;103358.25;5102553;28;20036;-64
2022/01/25 12:18:58;;;;;;;116.50;67.20;;;;;;;5.57;62.10;103349.56;5108077;28;20032;-64
2022/01/25 12:21:50;;;;;;;120.15;68.88;;;;;;;5.57;63.00;103353.19;5109615;28;20497;-63
2022/01/25 12:24:35;;;;;;;121.15;68.20;;;;;;;5.55;63.03;103357.16;5107387;28;20444;-63
2022/01/25 12:27:19;;;;;;;117.78;67.78;;;;;;;5.56;62.40;103356.97;5104286;28;20035;-65
2022/01/25 12:30:02;;;;;;;118.20;68.22;;;;;;;5.57;63.54;103344.94;5108210;28;20028;-62
2022/01/25 12:32:32;;;;;;;119.88;67.65;;;;;;;5.55;62.86;103348.88;5104788;28;20059;-61
2022/01/25 12:35:03;;;;;;;116.65;68.60;;;;;;;5.57;62.86;103347.69;5101148;28;20032;-64
2022/01/25 12:37:53;;;;;;;114.82;66.50;;;;;;;5.59;62.79;103340.13;5107938;28;20467;-64
2022/01/25 12:40:31;;;;;;;117.40;66.80;;;;;;;5.61;62.92;103337.22;5101539;28;20173;-64
2022/01/25 12:43:18;;;;;;;115.70;66.95;;;;;;;5.61;62.95;103338.06;5098453;28;20028;-64
2022/01/25 12:45:45;;;;;;;114.93;66.15;;;;;;;5.62;63.03;103342.59;5107802;28;20092;-63
2022/01/25 12:48:15;;;;;;;119.80;68.70;;;;;;;5.60;62.50;103336.34;5094438;28;20031;-63